Penrose, Utah
Current Conditions -  °F | °C
As of 3:51 PM on Wednesday 26 Nov 2014 (Local Time) from KLGU Reporting Station
Clear Clear  
Wind Chill: 54°   Ceiling: Unl
Heat Index: 54°   Visibility: 10mi
Dew Point: 32°   Wind: 6mph
Humidity: 43%   Direction: 20°NNE
Pressure: 30.33"   Gusts: NA
Location:  41.6836°N, 112.26°W
Report Text: KLGU 262251Z AUTO 02005KT 10SM CLR 12/00 A3033 RMK AO2 SLP257 T01220000
Loading
Personal Weather Stations






























Interactive Weather Map New forecast layout! Learn more

10-Day Weather Forecast

Advertisements
Track Severe Weather on mobile